createdAt,value
2018-12-07T00:02:05.614Z,91.80
2018-12-07T00:04:33.865Z,91.87
2018-12-07T00:07:02.160Z,91.50
2018-12-07T00:09:30.331Z,91.91
2018-12-07T00:11:58.530Z,91.67
2018-12-07T00:14:26.889Z,92.03
2018-12-07T00:16:55.084Z,92.38
2018-12-07T00:19:23.535Z,92.77
2018-12-07T00:21:51.710Z,92.38
2018-12-07T00:24:21.170Z,92.60
2018-12-07T00:26:49.364Z,91.42
2018-12-07T00:29:17.568Z,91.91
2018-12-07T00:31:49.276Z,91.52
2018-12-07T00:34:19.345Z,91.54
2018-12-07T00:36:50.252Z,91.54
2018-12-07T00:39:18.554Z,91.24
2018-12-07T00:41:46.728Z,91.08
2018-12-07T00:44:14.945Z,91.28
2018-12-07T00:46:43.125Z,91.02
2018-12-07T00:49:11.313Z,91.38
2018-12-07T00:51:39.526Z,91.23
2018-12-07T00:54:07.724Z,90.93
2018-12-07T00:56:36.649Z,91.50
2018-12-07T00:59:05.229Z,91.30
2018-12-07T01:01:34.876Z,90.42
2018-12-07T01:04:04.704Z,90.43
2018-12-07T01:06:34.771Z,90.92
2018-12-07T01:09:05.757Z,90.85
2018-12-07T01:11:35.016Z,91.01
2018-12-07T01:14:03.241Z,90.97
2018-12-07T01:16:31.964Z,91.01
2018-12-07T01:19:00.294Z,90.98
2018-12-07T01:21:28.503Z,91.13
2018-12-07T01:23:56.733Z,91.50
2018-12-07T01:26:24.922Z,90.98
2018-12-07T01:28:53.649Z,90.65
2018-12-07T01:31:21.973Z,90.66
2018-12-07T01:33:50.256Z,90.20
2018-12-07T01:36:18.449Z,89.93
2018-12-07T01:38:46.664Z,90.20
2018-12-07T01:41:15.340Z,89.88
2018-12-07T01:43:43.577Z,89.45
2018-12-07T01:46:11.861Z,89.82
2018-12-07T01:48:40.134Z,89.70
2018-12-07T01:51:08.336Z,89.20
2018-12-07T01:53:36.530Z,88.71
2018-12-07T01:56:04.897Z,89.17
2018-12-07T01:58:33.103Z,89.21
2018-12-07T02:01:01.284Z,89.19
2018-12-07T02:03:29.689Z,88.21
2018-12-07T02:05:58.407Z,88.05
2018-12-07T02:08:26.798Z,87.94
2018-12-07T02:10:54.987Z,88.41
2018-12-07T02:13:23.181Z,87.90
2018-12-07T02:15:51.508Z,87.75
2018-12-07T02:18:19.737Z,87.75
2018-12-07T02:20:48.005Z,86.87
2018-12-07T02:23:16.169Z,86.88
2018-12-07T02:25:44.451Z,87.35
2018-12-07T02:28:12.630Z,87.28
2018-12-07T02:30:40.929Z,87.15
2018-12-07T02:33:09.149Z,86.84
2018-12-07T02:35:37.445Z,86.36
2018-12-07T02:38:05.634Z,86.92
2018-12-07T02:40:33.892Z,86.67
2018-12-07T02:43:02.769Z,86.62
2018-12-07T02:45:31.047Z,86.67
2018-12-07T02:47:59.237Z,86.69
2018-12-07T02:50:27.518Z,86.75
2018-12-07T02:52:55.800Z,86.76
2018-12-07T02:55:24.030Z,86.66
2018-12-07T02:57:52.245Z,86.72
2018-12-07T03:00:20.421Z,86.74
2018-12-07T03:02:48.696Z,87.07
2018-12-07T03:05:16.973Z,87.17
2018-12-07T03:07:45.264Z,87.28
2018-12-07T03:10:13.512Z,87.67
2018-12-07T03:12:41.781Z,87.07
2018-12-07T03:15:10.068Z,87.22
2018-12-07T03:17:38.236Z,87.21
2018-12-07T03:20:06.515Z,87.06
2018-12-07T03:22:35.106Z,86.96
2018-12-07T03:25:03.378Z,87.07
2018-12-07T03:27:31.566Z,86.39
2018-12-07T03:29:59.734Z,86.44
2018-12-07T03:32:27.929Z,86.85
2018-12-07T03:34:56.190Z,86.01
2018-12-07T03:37:24.437Z,85.95
2018-12-07T03:39:52.626Z,86.17
2018-12-07T03:42:20.895Z,86.38
2018-12-07T03:44:49.080Z,86.71
2018-12-07T03:47:17.348Z,86.34
2018-12-07T03:49:45.513Z,86.36
2018-12-07T03:52:13.709Z,86.66
2018-12-07T03:54:41.886Z,86.53
2018-12-07T03:57:10.131Z,86.13
2018-12-07T03:59:38.324Z,86.41
2018-12-07T04:02:06.700Z,86.44
2018-12-07T04:04:34.919Z,86.57
2018-12-07T04:07:03.664Z,86.76
2018-12-07T04:09:32.009Z,86.77
2018-12-07T04:12:01.052Z,87.15
2018-12-07T04:14:29.304Z,87.24
2018-12-07T04:16:57.590Z,87.50
2018-12-07T04:19:25.850Z,87.85
2018-12-07T04:21:54.126Z,87.31
2018-12-07T04:24:22.769Z,87.69
2018-12-07T04:26:50.940Z,87.32
2018-12-07T04:29:19.118Z,87.41
2018-12-07T04:31:48.414Z,87.81
2018-12-07T04:34:16.589Z,87.57
2018-12-07T04:36:44.808Z,87.44
2018-12-07T04:39:13.137Z,86.95
2018-12-07T04:41:41.407Z,87.52
2018-12-07T04:44:09.584Z,87.25
2018-12-07T04:46:37.810Z,87.66
2018-12-07T04:49:06.075Z,87.21
2018-12-07T04:51:34.357Z,86.62
2018-12-07T04:54:02.550Z,86.30
2018-12-07T04:56:30.870Z,86.70
2018-12-07T04:58:59.090Z,86.15
2018-12-07T05:01:27.470Z,86.08
2018-12-07T05:03:55.639Z,85.67
2018-12-07T05:06:24.005Z,85.99
2018-12-07T05:08:52.213Z,86.02
2018-12-07T05:11:20.379Z,86.33
2018-12-07T05:13:49.928Z,86.01
2018-12-07T05:16:18.241Z,85.46
2018-12-07T05:18:46.421Z,85.67
2018-12-07T05:21:14.615Z,85.61
2018-12-07T05:23:42.885Z,85.65
2018-12-07T05:26:11.509Z,86.12
2018-12-07T05:28:39.683Z,86.18
2018-12-07T05:31:07.894Z,86.03
2018-12-07T05:33:36.089Z,86.07
2018-12-07T05:36:04.257Z,86.01
2018-12-07T05:38:33.294Z,86.43
2018-12-07T05:41:01.622Z,86.53
2018-12-07T05:43:30.201Z,86.31
2018-12-07T05:45:58.577Z,86.31
2018-12-07T05:48:26.758Z,86.75
2018-12-07T05:50:54.972Z,87.09
2018-12-07T05:53:23.197Z,86.74
2018-12-07T05:55:52.724Z,87.27
2018-12-07T05:58:24.038Z,87.92
2018-12-07T06:00:53.234Z,88.09
2018-12-07T06:03:23.225Z,88.25
2018-12-07T06:05:53.200Z,88.57
2018-12-07T06:08:22.793Z,89.11
2018-12-07T06:10:53.565Z,89.44
2018-12-07T06:13:25.721Z,89.47
2018-12-07T06:15:54.225Z,89.31
2018-12-07T06:18:22.531Z,89.44
2018-12-07T06:20:50.817Z,89.60
2018-12-07T06:23:18.995Z,89.68
2018-12-07T06:25:47.170Z,89.96
2018-12-07T06:28:15.653Z,89.89
2018-12-07T06:30:43.833Z,89.53
2018-12-07T06:33:12.006Z,89.51
2018-12-07T06:35:40.269Z,89.33
2018-12-07T06:38:08.501Z,89.66
2018-12-07T06:40:36.734Z,89.86
2018-12-07T06:43:04.926Z,89.67
2018-12-07T06:45:33.104Z,89.84
2018-12-07T06:48:01.339Z,90.20
2018-12-07T06:50:29.515Z,89.53
2018-12-07T06:52:58.254Z,90.39
2018-12-07T06:55:26.468Z,89.76
2018-12-07T06:57:54.849Z,89.97
2018-12-07T07:00:23.140Z,90.14
2018-12-07T07:02:51.316Z,90.11
2018-12-07T07:05:19.517Z,90.23
2018-12-07T07:07:47.713Z,89.89
2018-12-07T07:10:15.917Z,89.85
2018-12-07T07:12:44.094Z,90.17
2018-12-07T07:15:12.262Z,90.12
2018-12-07T07:17:41.318Z,90.58
2018-12-07T07:20:09.641Z,90.50
2018-12-07T07:22:37.824Z,90.32
2018-12-07T07:25:06.313Z,90.74
2018-12-07T07:27:34.486Z,90.64
2018-12-07T07:30:02.866Z,90.86
2018-12-07T07:32:31.114Z,90.57
2018-12-07T07:34:59.286Z,90.99
2018-12-07T07:37:27.478Z,90.18
2018-12-07T07:39:55.844Z,90.42
2018-12-07T07:42:25.307Z,90.84
2018-12-07T07:44:53.513Z,91.37
2018-12-07T07:47:21.802Z,91.68
2018-12-07T07:49:50.077Z,91.16
2018-12-07T07:52:18.341Z,91.54
2018-12-07T07:54:47.389Z,91.62
2018-12-07T07:57:15.561Z,91.89
2018-12-07T07:59:43.778Z,92.15
2018-12-07T08:02:11.996Z,91.87
2018-12-07T08:04:40.348Z,92.16
2018-12-07T08:07:08.875Z,92.02
2018-12-07T08:09:37.097Z,91.97
2018-12-07T08:12:05.268Z,92.38
2018-12-07T08:14:33.478Z,92.12
2018-12-07T08:17:03.474Z,91.92
2018-12-07T08:19:32.102Z,92.69
2018-12-07T08:22:26.900Z,91.59
2018-12-07T08:24:55.137Z,92.19
2018-12-07T08:27:23.385Z,91.73
2018-12-07T08:29:51.553Z,91.94
2018-12-07T08:32:19.921Z,92.14
2018-12-07T08:34:48.114Z,92.06
2018-12-07T08:37:16.870Z,92.42
2018-12-07T08:39:45.094Z,91.98
2018-12-07T08:42:22.645Z,92.56
2018-12-07T08:44:50.920Z,92.55
2018-12-07T08:47:19.174Z,92.60
2018-12-07T08:49:56.185Z,92.57
2018-12-07T08:52:24.826Z,92.51
2018-12-07T08:54:53.205Z,92.83
2018-12-07T08:57:21.458Z,93.25
2018-12-07T08:59:49.714Z,92.61
2018-12-07T09:02:17.906Z,92.72
2018-12-07T09:04:46.164Z,92.59
2018-12-07T09:07:14.480Z,93.42
2018-12-07T09:09:42.716Z,93.05
2018-12-07T09:12:10.993Z,93.30
2018-12-07T09:14:39.181Z,93.25
2018-12-07T09:17:07.427Z,92.94
2018-12-07T09:19:36.304Z,93.80
2018-12-07T09:22:04.615Z,93.02
2018-12-07T09:24:32.785Z,92.82
2018-12-07T09:27:01.130Z,92.99
2018-12-07T09:29:29.322Z,92.30
2018-12-07T09:31:57.865Z,92.17
2018-12-07T09:34:26.102Z,92.39
2018-12-07T09:36:54.261Z,92.32
2018-12-07T09:39:22.507Z,92.43
2018-12-07T09:41:52.398Z,92.62
2018-12-07T09:44:20.992Z,91.45
2018-12-07T09:46:49.201Z,91.61
2018-12-07T09:49:17.444Z,91.60
2018-12-07T09:51:45.698Z,91.59
2018-12-07T09:54:13.930Z,91.48
2018-12-07T09:56:42.579Z,91.33
2018-12-07T09:59:10.788Z,91.57
2018-12-07T10:01:39.076Z,91.82
2018-12-07T10:04:07.256Z,90.99
2018-12-07T10:06:35.421Z,90.55
2018-12-07T10:09:06.060Z,90.97
2018-12-07T10:11:34.337Z,90.85
2018-12-07T10:14:02.518Z,91.09
2018-12-07T10:16:30.788Z,90.84
2018-12-07T10:18:58.965Z,90.58
2018-12-07T10:21:27.236Z,91.19
2018-12-07T10:23:55.390Z,89.92
2018-12-07T10:26:23.550Z,89.46
2018-12-07T10:28:51.751Z,90.19
2018-12-07T10:31:19.925Z,89.49
2018-12-07T10:33:48.549Z,89.32
2018-12-07T10:36:16.713Z,88.90
2018-12-07T10:38:44.889Z,88.93
2018-12-07T10:41:13.064Z,88.86
2018-12-07T10:43:41.293Z,88.42
2018-12-07T10:46:09.830Z,89.10
2018-12-07T10:48:37.993Z,87.87
2018-12-07T10:51:08.185Z,88.40
2018-12-07T10:53:36.451Z,88.43
2018-12-07T10:56:04.729Z,89.22
2018-12-07T10:58:33.257Z,89.42
2018-12-07T11:01:06.823Z,89.47
2018-12-07T11:03:40.545Z,89.81
2018-12-07T11:06:13.046Z,90.54
2018-12-07T11:08:46.865Z,90.62
2018-12-07T11:11:20.637Z,90.31
2018-12-07T11:13:54.765Z,89.57
2018-12-07T11:16:28.151Z,91.29
2018-12-07T11:19:01.945Z,90.33
2018-12-07T11:21:35.495Z,90.07
2018-12-07T11:24:09.671Z,90.47
2018-12-07T11:26:43.217Z,89.89
2018-12-07T11:29:16.915Z,90.28
2018-12-07T11:31:50.346Z,91.15
2018-12-07T11:34:24.876Z,90.62
2018-12-07T11:36:53.208Z,90.97
2018-12-07T11:39:21.373Z,91.65
2018-12-07T11:41:49.569Z,91.65
2018-12-07T11:44:17.815Z,91.59
2018-12-07T11:46:46.060Z,90.93
2018-12-07T11:49:14.290Z,91.43
2018-12-07T11:51:42.468Z,91.06
2018-12-07T11:54:10.660Z,91.76
2018-12-07T11:56:38.905Z,91.52
2018-12-07T11:59:07.686Z,92.04
2018-12-07T12:01:35.869Z,91.82
2018-12-07T12:04:04.145Z,91.84
2018-12-07T12:06:32.321Z,92.09
2018-12-07T12:09:00.493Z,91.82
2018-12-07T12:11:30.067Z,92.17
2018-12-07T12:13:58.282Z,92.17
2018-12-07T12:16:26.578Z,92.13
2018-12-07T12:18:54.765Z,92.31
2018-12-07T12:21:22.995Z,91.38
2018-12-07T12:23:53.810Z,91.51
2018-12-07T12:26:21.514Z,91.61
2018-12-07T12:28:49.676Z,91.06
2018-12-07T12:31:17.849Z,92.13
2018-12-07T12:33:46.024Z,92.24
2018-12-07T12:36:17.232Z,91.43
2018-12-07T12:38:44.387Z,91.72
2018-12-07T12:41:12.682Z,91.70
2018-12-07T12:43:40.869Z,90.59
2018-12-07T12:46:09.178Z,90.15
2018-12-07T12:48:38.804Z,89.60
2018-12-07T12:51:07.117Z,89.27
2018-12-07T12:53:35.391Z,89.50
2018-12-07T12:56:03.561Z,88.37
2018-12-07T12:58:31.803Z,89.13
2018-12-07T13:00:59.998Z,88.07
2018-12-07T13:03:28.289Z,87.20
2018-12-07T13:05:56.557Z,86.30
2018-12-07T13:08:24.748Z,88.13
2018-12-07T13:10:53.017Z,86.84
2018-12-07T13:13:22.001Z,88.00
2018-12-07T13:15:50.178Z,88.32
2018-12-07T13:18:18.369Z,88.84
2018-12-07T13:20:46.552Z,88.16
2018-12-07T13:23:14.719Z,88.32
2018-12-07T13:25:43.360Z,88.63
2018-12-07T13:28:11.536Z,88.51
2018-12-07T13:30:39.840Z,87.97
2018-12-07T13:33:08.128Z,88.24
2018-12-07T13:35:36.379Z,88.44
2018-12-07T13:38:04.596Z,88.35
2018-12-07T13:40:32.757Z,89.19
2018-12-07T13:43:00.931Z,88.97
2018-12-07T13:45:29.333Z,89.05
2018-12-07T13:47:57.793Z,89.29
2018-12-07T13:50:42.567Z,89.64
2018-12-07T13:53:10.946Z,89.34
2018-12-07T13:55:39.319Z,90.22
2018-12-07T13:58:07.918Z,90.23
2018-12-07T14:00:36.172Z,90.07
2018-12-07T14:03:04.672Z,89.47
2018-12-07T14:05:33.234Z,88.90
2018-12-07T14:08:01.553Z,88.74
2018-12-07T14:10:29.949Z,88.06
2018-12-07T14:12:58.247Z,88.41
2018-12-07T14:15:26.780Z,87.59
2018-12-07T14:17:55.190Z,87.74
2018-12-07T14:20:23.642Z,88.36
2018-12-07T14:22:52.185Z,89.79
2018-12-07T14:25:20.643Z,89.67
2018-12-07T14:27:48.968Z,90.59
2018-12-07T14:30:17.421Z,89.86
2018-12-07T14:32:45.767Z,90.14
2018-12-07T14:35:14.041Z,90.17
2018-12-07T14:37:42.591Z,90.13
2018-12-07T14:40:11.271Z,91.69
2018-12-07T14:42:39.462Z,92.36
2018-12-07T14:45:08.278Z,91.44
2018-12-07T14:47:36.586Z,91.90
2018-12-07T14:50:06.265Z,91.56
2018-12-07T14:52:34.732Z,92.00
2018-12-07T14:55:03.146Z,92.38
2018-12-07T14:57:31.543Z,93.29
2018-12-07T14:59:59.911Z,93.51
2018-12-07T15:02:28.226Z,93.05
2018-12-07T15:04:56.875Z,93.35
2018-12-07T15:07:25.306Z,93.33
2018-12-07T15:09:53.508Z,93.39
2018-12-07T15:12:21.971Z,93.92
2018-12-07T15:14:50.419Z,93.36
2018-12-07T15:17:18.806Z,93.41
2018-12-07T15:19:47.081Z,93.58
2018-12-07T15:22:15.480Z,94.23
2018-12-07T15:24:43.812Z,94.87
2018-12-07T15:27:12.067Z,94.15
2018-12-07T15:29:41.348Z,94.57
2018-12-07T15:32:09.793Z,95.19
2018-12-07T15:34:38.066Z,94.84
2018-12-07T15:37:06.464Z,95.60
2018-12-07T15:39:34.958Z,95.27
2018-12-07T15:42:03.799Z,95.21
2018-12-07T15:44:32.400Z,95.52
2018-12-07T15:47:00.852Z,95.10
2018-12-07T15:49:29.455Z,95.50
2018-12-07T15:51:57.862Z,95.73
2018-12-07T15:54:26.856Z,96.08
2018-12-07T15:56:55.185Z,96.06
2018-12-07T15:59:23.486Z,96.37
2018-12-07T16:01:51.883Z,96.51
2018-12-07T16:04:20.143Z,96.13
2018-12-07T16:06:49.578Z,96.49
2018-12-07T16:09:18.070Z,96.02
2018-12-07T16:11:46.609Z,96.38
2018-12-07T16:14:15.061Z,96.38
2018-12-07T16:16:43.572Z,96.34
2018-12-07T16:19:11.849Z,96.56
2018-12-07T16:21:40.271Z,96.74
2018-12-07T16:24:08.661Z,96.64
2018-12-07T16:26:37.092Z,95.89
2018-12-07T16:29:06.103Z,96.54
2018-12-07T16:31:34.728Z,96.22
2018-12-07T16:34:02.979Z,96.42
2018-12-07T16:36:31.244Z,96.41
2018-12-07T16:38:59.900Z,96.26
2018-12-07T16:41:28.179Z,95.85
2018-12-07T16:43:56.870Z,96.23
2018-12-07T16:46:25.493Z,95.90
2018-12-07T16:48:54.010Z,96.41
2018-12-07T16:51:22.895Z,96.11
2018-12-07T16:53:51.670Z,96.33
2018-12-07T16:56:20.580Z,96.56
2018-12-07T16:58:48.949Z,96.90
2018-12-07T17:01:17.745Z,96.70
2018-12-07T17:03:51.534Z,96.12
2018-12-07T17:06:20.010Z,96.14
2018-12-07T17:08:49.087Z,96.13
2018-12-07T17:11:17.422Z,96.23
2018-12-07T17:13:45.711Z,96.23
2018-12-07T17:16:14.291Z,96.73
2018-12-07T17:18:42.946Z,92.69
2018-12-07T17:21:11.615Z,90.64
2018-12-07T17:23:40.271Z,91.05
2018-12-07T17:26:08.912Z,91.22
2018-12-07T17:28:37.715Z,91.59
2018-12-07T17:31:06.214Z,91.74
2018-12-07T17:33:34.629Z,91.75
2018-12-07T17:36:03.247Z,92.78
2018-12-07T17:38:31.957Z,92.12
2018-12-07T17:41:00.541Z,91.84
2018-12-07T17:43:29.427Z,92.37
2018-12-07T17:45:58.120Z,92.73
2018-12-07T17:48:26.475Z,93.44
2018-12-07T17:50:54.657Z,93.81
2018-12-07T17:53:23.642Z,93.81
2018-12-07T17:55:52.953Z,93.98
2018-12-07T17:58:21.784Z,93.37
2018-12-07T18:00:51.767Z,92.30
2018-12-07T18:03:19.975Z,91.98
2018-12-07T18:05:48.202Z,92.10
2018-12-07T18:08:16.784Z,92.51
2018-12-07T18:10:45.908Z,92.66
2018-12-07T18:13:14.385Z,91.86
2018-12-07T18:15:43.018Z,93.31
2018-12-07T18:18:11.547Z,93.37
2018-12-07T18:20:39.976Z,93.92
2018-12-07T18:23:09.690Z,93.04
2018-12-07T18:25:38.333Z,93.61
2018-12-07T18:28:07.702Z,91.94
2018-12-07T18:30:37.072Z,92.70
2018-12-07T18:33:05.627Z,92.51
2018-12-07T18:35:34.111Z,93.02
2018-12-07T18:38:02.893Z,92.89
2018-12-07T18:40:31.188Z,92.04
2018-12-07T18:43:00.155Z,93.73
2018-12-07T18:45:28.494Z,92.13
2018-12-07T18:47:57.009Z,93.09
2018-12-07T18:50:25.645Z,92.96
2018-12-07T18:52:54.355Z,91.85
2018-12-07T18:55:23.229Z,90.83
2018-12-07T18:57:52.155Z,89.93
2018-12-07T19:00:20.975Z,91.10
2018-12-07T19:02:49.351Z,91.56
2018-12-07T19:05:17.525Z,92.10
2018-12-07T19:07:45.841Z,92.72
2018-12-07T19:10:14.270Z,92.54
2018-12-07T19:12:42.709Z,91.90
2018-12-07T19:15:11.110Z,88.83
2018-12-07T19:17:39.675Z,90.62
2018-12-07T19:20:08.580Z,91.01
2018-12-07T19:22:37.332Z,91.84
2018-12-07T19:25:06.709Z,91.57
2018-12-07T19:27:35.213Z,92.17
2018-12-07T19:30:03.752Z,91.18
2018-12-07T19:32:32.332Z,91.27
2018-12-07T19:35:00.677Z,92.23
2018-12-07T19:37:29.251Z,90.63
2018-12-07T19:39:57.931Z,90.97
2018-12-07T19:42:26.456Z,90.50
2018-12-07T19:44:55.119Z,90.80
2018-12-07T19:47:23.876Z,91.14
2018-12-07T19:49:53.053Z,90.87
2018-12-07T19:52:22.642Z,91.92
2018-12-07T19:54:51.996Z,90.86
2018-12-07T19:57:21.030Z,91.01
2018-12-07T19:59:51.255Z,91.34
2018-12-07T20:02:21.498Z,91.70
2018-12-07T20:04:50.226Z,92.67
2018-12-07T20:07:20.476Z,92.23
2018-12-07T20:09:49.777Z,91.49
2018-12-07T20:12:19.890Z,92.31
2018-12-07T20:14:48.675Z,90.51
2018-12-07T20:17:17.318Z,90.76
2018-12-07T20:19:46.128Z,89.62
2018-12-07T20:22:15.001Z,89.60
2018-12-07T20:24:44.940Z,90.32
2018-12-07T20:27:13.307Z,90.82
2018-12-07T20:29:42.379Z,91.06
2018-12-07T20:32:11.362Z,90.27
2018-12-07T20:34:39.738Z,90.10
2018-12-07T20:37:08.642Z,90.88
2018-12-07T20:39:37.198Z,91.35
2018-12-07T20:42:05.926Z,90.41
2018-12-07T20:44:34.247Z,90.66
2018-12-07T20:47:02.944Z,90.33
2018-12-07T20:49:31.668Z,89.00
2018-12-07T20:52:00.679Z,89.09
2018-12-07T20:54:29.103Z,90.15
2018-12-07T20:56:57.433Z,89.39
2018-12-07T20:59:25.897Z,88.66
2018-12-07T21:01:54.654Z,89.91
2018-12-07T21:04:30.883Z,89.62
2018-12-07T21:08:11.571Z,90.60
2018-12-07T21:11:07.828Z,87.99
2018-12-07T21:14:44.715Z,87.83
2018-12-07T21:17:26.105Z,88.19
2018-12-07T21:20:02.339Z,89.55
2018-12-07T21:22:30.721Z,87.78
2018-12-07T21:24:59.197Z,87.75
2018-12-07T21:27:27.844Z,87.92
2018-12-07T21:33:20.785Z,87.37
2018-12-07T21:36:40.482Z,87.44
2018-12-07T21:39:32.143Z,89.15
2018-12-07T21:42:01.008Z,91.62
2018-12-07T21:44:29.281Z,92.09
2018-12-07T21:46:58.423Z,92.55
2018-12-07T21:49:30.030Z,91.96
2018-12-07T21:52:13.816Z,92.80
2018-12-07T21:54:42.349Z,92.21
2018-12-07T21:57:11.154Z,92.66
2018-12-07T21:59:40.190Z,92.65
2018-12-07T22:02:08.767Z,92.33
2018-12-07T22:04:37.883Z,92.27
2018-12-07T22:07:07.244Z,92.46
2018-12-07T22:09:35.770Z,92.16
2018-12-07T22:12:05.726Z,91.00
2018-12-07T22:14:34.925Z,91.33
2018-12-07T22:17:03.925Z,91.30
2018-12-07T22:19:32.212Z,91.88
2018-12-07T22:22:00.904Z,91.16
2018-12-07T22:24:29.234Z,92.42
2018-12-07T22:26:57.543Z,89.82
2018-12-07T22:29:25.971Z,90.56
2018-12-07T22:31:54.262Z,91.93
2018-12-07T22:34:22.884Z,91.27
2018-12-07T22:36:51.462Z,90.96
2018-12-07T22:39:21.510Z,90.63
2018-12-07T22:41:50.621Z,90.76
2018-12-07T22:44:19.265Z,90.42
2018-12-07T22:46:47.678Z,90.82
2018-12-07T22:49:16.011Z,90.39
2018-12-07T22:51:45.538Z,90.36
2018-12-07T22:54:13.770Z,90.74
2018-12-07T22:56:42.146Z,90.68
2018-12-07T22:59:10.320Z,90.65
2018-12-07T23:01:38.597Z,90.08
2018-12-07T23:04:06.859Z,90.74
2018-12-07T23:06:35.056Z,91.16
2018-12-07T23:09:04.273Z,92.79
2018-12-07T23:11:32.539Z,92.96
2018-12-07T23:14:00.711Z,93.20
2018-12-07T23:16:30.056Z,91.78
2018-12-07T23:18:58.480Z,92.51
2018-12-07T23:21:26.802Z,93.45
2018-12-07T23:23:55.062Z,92.76
2018-12-07T23:26:23.309Z,92.92
2018-12-07T23:28:51.641Z,92.46
2018-12-07T23:31:19.945Z,92.13
2018-12-07T23:33:48.356Z,92.25
2018-12-07T23:36:16.620Z,91.23
2018-12-07T23:38:44.785Z,91.84
2018-12-07T23:41:13.832Z,91.19
2018-12-07T23:43:42.051Z,91.28
2018-12-07T23:46:10.325Z,91.48
2018-12-07T23:48:38.517Z,91.05
2018-12-07T23:51:06.770Z,92.33
2018-12-07T23:53:35.428Z,91.32
2018-12-07T23:56:03.741Z,92.64
2018-12-07T23:58:32.010Z,92.01
